Wolvega, Netherlands
Current Conditions -  °F | °C
As of 5:25 AM on Sunday 26 Oct 2014 (Local Time) from EHLW Reporting Station
Haze Haze  
Wind Chill: 50°   Ceiling: 38000
Heat Index: 50°   Visibility: 5mi
Dew Point: 50°   Wind: 8mph
Humidity: 100%   Direction: 200°SSW
Pressure: 30.12"   Gusts: NA
Location:  52.88°N, 6°E
Report Text: EHLW 260325Z AUTO 20007KT 8000 BR FEW046 BKN380 10/10 Q1020 BLU
Loading
Personal Weather Stations






























Interactive Weather Map
Tropical Storm Tracking
New forecast layout! Learn more

10-Day Weather Forecast

Advertisements
Track Severe Weather on mobile